Weather at Riverside Heliport

Public forecast

Using degrees Fahrenheit for public forecast. Weather courtesy of forecast.io.

Closest aviation weather report (METAR) to Riverside Heliport

Closest report is Glacier Park International Airport, 5.9 nm (11.0 km) NNE. Retrieved 2022/05/26 19:55 UTC (11 minutes ago):

KGPI 261955Z 10SM OVC070 18/07 A2994 RMK AO2 SLP141 T01830072

Closest aviation forecast (TAF) to Riverside Heliport

Closest forecast is Glacier Park International Airport, 5.9 nm (11.0 km) NNE. Retrieved 2022/05/26 18:22 UTC (2 hours ago):

TAF KGPI 261720Z 2618/2718 12006KT P6SM SKC FM261900 14012KT P6SM BKN150 FM270700 36007KT P6SM -SHRA BKN100 FM271200 17005KT 5SM -RA BR OVC022